sensor_id;sensor_type;location;lat;lon;timestamp;temperature;humidity
23729;DHT22;12045;60.214;24.724;2024-01-30T00:00:58;1.60;99.90
23729;DHT22;12045;60.214;24.724;2024-01-30T00:03:27;1.60;99.90
23729;DHT22;12045;60.214;24.724;2024-01-30T00:05:56;1.60;99.90
23729;DHT22;12045;60.214;24.724;2024-01-30T00:08:26;1.60;99.90
23729;DHT22;12045;60.214;24.724;2024-01-30T00:10:55;1.80;99.90
23729;DHT22;12045;60.214;24.724;2024-01-30T00:13:22;1.70;99.90
23729;DHT22;12045;60.214;24.724;2024-01-30T00:15:53;1.60;99.90
23729;DHT22;12045;60.214;24.724;2024-01-30T00:18:21;1.80;99.90
23729;DHT22;12045;60.214;24.724;2024-01-30T00:20:48;1.80;99.90
23729;DHT22;12045;60.214;24.724;2024-01-30T00:23:18;0.90;99.90
23729;DHT22;12045;60.214;24.724;2024-01-30T00:25:46;1.60;99.90
23729;DHT22;12045;60.214;24.724;2024-01-30T00:28:16;1.80;99.90
23729;DHT22;12045;60.214;24.724;2024-01-30T00:30:45;1.80;99.90
23729;DHT22;12045;60.214;24.724;2024-01-30T00:33:13;1.90;99.90
23729;DHT22;12045;60.214;24.724;2024-01-30T00:35:42;1.80;99.90
23729;DHT22;12045;60.214;24.724;2024-01-30T00:38:11;1.90;99.90
23729;DHT22;12045;60.214;24.724;2024-01-30T00:40:41;1.90;99.90
23729;DHT22;12045;60.214;24.724;2024-01-30T00:43:10;1.90;99.90
23729;DHT22;12045;60.214;24.724;2024-01-30T00:45:37;2.00;99.90
23729;DHT22;12045;60.214;24.724;2024-01-30T00:48:09;1.80;99.90
23729;DHT22;12045;60.214;24.724;2024-01-30T00:50:37;1.90;99.90
23729;DHT22;12045;60.214;24.724;2024-01-30T00:53:06;2.00;99.90
23729;DHT22;12045;60.214;24.724;2024-01-30T00:55:35;2.00;99.90
23729;DHT22;12045;60.214;24.724;2024-01-30T00:58:03;2.10;99.90
23729;DHT22;12045;60.214;24.724;2024-01-30T01:00:33;1.60;99.90
23729;DHT22;12045;60.214;24.724;2024-01-30T01:03:01;1.90;99.90
23729;DHT22;12045;60.214;24.724;2024-01-30T01:05:29;2.10;99.90
23729;DHT22;12045;60.214;24.724;2024-01-30T01:07:59;2.10;99.90
23729;DHT22;12045;60.214;24.724;2024-01-30T01:10:27;1.80;99.90
23729;DHT22;12045;60.214;24.724;2024-01-30T01:12:56;2.00;99.90
23729;DHT22;12045;60.214;24.724;2024-01-30T01:15:25;2.30;99.90
23729;DHT22;12045;60.214;24.724;2024-01-30T01:17:56;2.10;99.90
23729;DHT22;12045;60.214;24.724;2024-01-30T01:20:25;2.20;99.90
23729;DHT22;12045;60.214;24.724;2024-01-30T01:22:54;2.70;99.90
23729;DHT22;12045;60.214;24.724;2024-01-30T01:25:24;2.40;99.90
23729;DHT22;12045;60.214;24.724;2024-01-30T01:27:54;2.60;99.90
23729;DHT22;12045;60.214;24.724;2024-01-30T01:30:22;2.20;99.90
23729;DHT22;12045;60.214;24.724;2024-01-30T01:32:49;2.60;99.90
23729;DHT22;12045;60.214;24.724;2024-01-30T01:35:24;3.50;99.90
23729;DHT22;12045;60.214;24.724;2024-01-30T01:37:54;2.70;99.90
23729;DHT22;12045;60.214;24.724;2024-01-30T01:40:27;3.60;99.90
23729;DHT22;12045;60.214;24.724;2024-01-30T01:42:57;2.30;99.90
23729;DHT22;12045;60.214;24.724;2024-01-30T01:45:25;2.60;99.90
23729;DHT22;12045;60.214;24.724;2024-01-30T01:47:53;2.60;99.90
23729;DHT22;12045;60.214;24.724;2024-01-30T01:50:22;3.30;99.90
23729;DHT22;12045;60.214;24.724;2024-01-30T01:52:51;2.50;99.90
23729;DHT22;12045;60.214;24.724;2024-01-30T01:55:21;2.50;99.90
23729;DHT22;12045;60.214;24.724;2024-01-30T01:57:50;2.30;99.90
23729;DHT22;12045;60.214;24.724;2024-01-30T02:00:18;1.80;99.90
23729;DHT22;12045;60.214;24.724;2024-01-30T02:02:50;2.50;99.90
23729;DHT22;12045;60.214;24.724;2024-01-30T02:05:21;3.10;99.90
23729;DHT22;12045;60.214;24.724;2024-01-30T02:07:50;3.10;99.90
23729;DHT22;12045;60.214;24.724;2024-01-30T02:10:19;3.30;99.90
23729;DHT22;12045;60.214;24.724;2024-01-30T02:12:48;2.40;99.90
23729;DHT22;12045;60.214;24.724;2024-01-30T02:15:17;2.30;99.90
23729;DHT22;12045;60.214;24.724;2024-01-30T02:17:47;2.40;99.90
23729;DHT22;12045;60.214;24.724;2024-01-30T02:20:16;2.50;99.90
23729;DHT22;12045;60.214;24.724;2024-01-30T02:22:45;2.60;99.90
23729;DHT22;12045;60.214;24.724;2024-01-30T02:25:15;2.60;99.90
23729;DHT22;12045;60.214;24.724;2024-01-30T02:27:45;2.40;99.90
23729;DHT22;12045;60.214;24.724;2024-01-30T02:30:13;2.20;99.90
23729;DHT22;12045;60.214;24.724;2024-01-30T02:32:42;2.60;99.90
23729;DHT22;12045;60.214;24.724;2024-01-30T02:35:09;2.40;99.90
23729;DHT22;12045;60.214;24.724;2024-01-30T02:37:38;2.60;99.90
23729;DHT22;12045;60.214;24.724;2024-01-30T02:40:07;3.20;99.90
23729;DHT22;12045;60.214;24.724;2024-01-30T02:42:35;2.50;99.90
23729;DHT22;12045;60.214;24.724;2024-01-30T02:45:04;3.20;99.90
23729;DHT22;12045;60.214;24.724;2024-01-30T02:47:32;2.30;99.90
23729;DHT22;12045;60.214;24.724;2024-01-30T02:50:03;3.00;99.90
23729;DHT22;12045;60.214;24.724;2024-01-30T02:52:32;2.40;99.90
23729;DHT22;12045;60.214;24.724;2024-01-30T02:55:00;2.30;99.90
23729;DHT22;12045;60.214;24.724;2024-01-30T02:57:29;2.20;99.90
23729;DHT22;12045;60.214;24.724;2024-01-30T02:59:58;3.00;99.90
23729;DHT22;12045;60.214;24.724;2024-01-30T03:02:26;2.20;99.90
23729;DHT22;12045;60.214;24.724;2024-01-30T03:04:54;2.50;99.90
23729;DHT22;12045;60.214;24.724;2024-01-30T03:07:26;2.30;99.90
23729;DHT22;12045;60.214;24.724;2024-01-30T03:09:55;2.80;99.90
23729;DHT22;12045;60.214;24.724;2024-01-30T03:12:24;2.30;99.90
23729;DHT22;12045;60.214;24.724;2024-01-30T03:14:55;2.40;99.90
23729;DHT22;12045;60.214;24.724;2024-01-30T03:17:23;2.30;99.90
23729;DHT22;12045;60.214;24.724;2024-01-30T03:19:55;2.20;99.90
23729;DHT22;12045;60.214;24.724;2024-01-30T03:22:23;2.20;99.90
23729;DHT22;12045;60.214;24.724;2024-01-30T03:24:52;2.00;99.90
23729;DHT22;12045;60.214;24.724;2024-01-30T03:27:20;1.90;99.90
23729;DHT22;12045;60.214;24.724;2024-01-30T03:29:48;1.80;99.90
23729;DHT22;12045;60.214;24.724;2024-01-30T03:32:16;1.70;99.90
23729;DHT22;12045;60.214;24.724;2024-01-30T03:34:45;1.60;99.90
23729;DHT22;12045;60.214;24.724;2024-01-30T03:37:13;1.60;99.90
23729;DHT22;12045;60.214;24.724;2024-01-30T03:39:41;1.30;99.90
23729;DHT22;12045;60.214;24.724;2024-01-30T03:42:10;1.30;99.90
23729;DHT22;12045;60.214;24.724;2024-01-30T03:44:40;1.30;99.90
23729;DHT22;12045;60.214;24.724;2024-01-30T03:47:08;1.30;99.90
23729;DHT22;12045;60.214;24.724;2024-01-30T03:49:35;1.40;99.90
23729;DHT22;12045;60.214;24.724;2024-01-30T03:52:04;1.40;99.90
23729;DHT22;12045;60.214;24.724;2024-01-30T03:54:33;1.60;99.90
23729;DHT22;12045;60.214;24.724;2024-01-30T03:57:01;1.50;99.90
23729;DHT22;12045;60.214;24.724;2024-01-30T03:59:29;1.70;99.90
23729;DHT22;12045;60.214;24.724;2024-01-30T04:01:57;1.60;99.90
23729;DHT22;12045;60.214;24.724;2024-01-30T04:04:27;1.60;99.90
23729;DHT22;12045;60.214;24.724;2024-01-30T04:06:55;1.80;99.90
23729;DHT22;12045;60.214;24.724;2024-01-30T04:09:24;0.90;99.90
23729;DHT22;12045;60.214;24.724;2024-01-30T04:11:53;0.90;99.90
23729;DHT22;12045;60.214;24.724;2024-01-30T04:14:22;1.10;99.90
23729;DHT22;12045;60.214;24.724;2024-01-30T04:16:53;1.50;99.90
23729;DHT22;12045;60.214;24.724;2024-01-30T04:19:22;0.90;99.90
23729;DHT22;12045;60.214;24.724;2024-01-30T04:21:50;1.10;99.90
23729;DHT22;12045;60.214;24.724;2024-01-30T04:24:19;1.10;99.90
23729;DHT22;12045;60.214;24.724;2024-01-30T04:26:47;1.10;99.90
23729;DHT22;12045;60.214;24.724;2024-01-30T04:29:18;1.20;99.90
23729;DHT22;12045;60.214;24.724;2024-01-30T04:31:46;1.50;99.90
23729;DHT22;12045;60.214;24.724;2024-01-30T04:34:15;1.30;99.90
23729;DHT22;12045;60.214;24.724;2024-01-30T04:36:44;1.70;99.90
23729;DHT22;12045;60.214;24.724;2024-01-30T04:39:15;1.30;99.90
23729;DHT22;12045;60.214;24.724;2024-01-30T04:41:43;2.00;99.90
23729;DHT22;12045;60.214;24.724;2024-01-30T04:44:13;1.30;99.90
23729;DHT22;12045;60.214;24.724;2024-01-30T04:46:41;1.60;99.90
23729;DHT22;12045;60.214;24.724;2024-01-30T04:49:10;1.50;99.90
23729;DHT22;12045;60.214;24.724;2024-01-30T04:51:39;2.10;99.90
23729;DHT22;12045;60.214;24.724;2024-01-30T04:54:09;1.30;99.90
23729;DHT22;12045;60.214;24.724;2024-01-30T04:56:38;1.50;99.90
23729;DHT22;12045;60.214;24.724;2024-01-30T04:59:07;1.80;99.90
23729;DHT22;12045;60.214;24.724;2024-01-30T05:01:36;1.60;99.90
23729;DHT22;12045;60.214;24.724;2024-01-30T05:04:07;1.30;99.90
23729;DHT22;12045;60.214;24.724;2024-01-30T05:06:40;2.40;99.90
23729;DHT22;12045;60.214;24.724;2024-01-30T05:09:10;1.80;99.90
23729;DHT22;12045;60.214;24.724;2024-01-30T05:11:39;1.60;99.90
23729;DHT22;12045;60.214;24.724;2024-01-30T05:14:08;2.20;99.90
23729;DHT22;12045;60.214;24.724;2024-01-30T05:16:40;2.10;99.90
23729;DHT22;12045;60.214;24.724;2024-01-30T05:19:09;1.90;99.90
23729;DHT22;12045;60.214;24.724;2024-01-30T05:21:39;1.90;99.90
23729;DHT22;12045;60.214;24.724;2024-01-30T05:24:07;1.50;99.90
23729;DHT22;12045;60.214;24.724;2024-01-30T05:26:39;1.10;99.90
23729;DHT22;12045;60.214;24.724;2024-01-30T05:29:06;1.10;99.90
23729;DHT22;12045;60.214;24.724;2024-01-30T05:31:35;1.20;99.90
23729;DHT22;12045;60.214;24.724;2024-01-30T05:34:04;1.30;99.90
23729;DHT22;12045;60.214;24.724;2024-01-30T05:36:32;1.50;99.90
23729;DHT22;12045;60.214;24.724;2024-01-30T05:39:02;1.40;99.90
23729;DHT22;12045;60.214;24.724;2024-01-30T05:41:33;1.30;99.90
23729;DHT22;12045;60.214;24.724;2024-01-30T05:44:03;1.20;99.90
23729;DHT22;12045;60.214;24.724;2024-01-30T05:46:44;1.20;99.90
23729;DHT22;12045;60.214;24.724;2024-01-30T05:49:12;0.60;99.90
23729;DHT22;12045;60.214;24.724;2024-01-30T05:51:41;1.00;99.90
23729;DHT22;12045;60.214;24.724;2024-01-30T05:54:09;0.90;99.90
23729;DHT22;12045;60.214;24.724;2024-01-30T05:56:40;0.90;99.90
23729;DHT22;12045;60.214;24.724;2024-01-30T05:59:08;0.90;99.90
23729;DHT22;12045;60.214;24.724;2024-01-30T06:01:38;0.60;99.90
23729;DHT22;12045;60.214;24.724;2024-01-30T06:04:05;0.80;99.90
23729;DHT22;12045;60.214;24.724;2024-01-30T06:06:33;0.70;99.90
23729;DHT22;12045;60.214;24.724;2024-01-30T06:09:02;0.70;99.90
23729;DHT22;12045;60.214;24.724;2024-01-30T06:11:29;0.70;99.90
23729;DHT22;12045;60.214;24.724;2024-01-30T06:13:58;0.70;99.90
23729;DHT22;12045;60.214;24.724;2024-01-30T06:16:27;1.20;99.90
23729;DHT22;12045;60.214;24.724;2024-01-30T06:18:57;1.00;99.90
23729;DHT22;12045;60.214;24.724;2024-01-30T06:21:25;1.00;99.90
23729;DHT22;12045;60.214;24.724;2024-01-30T06:23:53;1.20;99.90
23729;DHT22;12045;60.214;24.724;2024-01-30T06:28:51;1.20;99.90
23729;DHT22;12045;60.214;24.724;2024-01-30T06:31:19;1.20;99.90
23729;DHT22;12045;60.214;24.724;2024-01-30T06:33:49;1.10;99.90
23729;DHT22;12045;60.214;24.724;2024-01-30T06:36:19;1.00;99.90
23729;DHT22;12045;60.214;24.724;2024-01-30T06:38:48;1.30;99.90
23729;DHT22;12045;60.214;24.724;2024-01-30T06:41:17;0.60;99.90
23729;DHT22;12045;60.214;24.724;2024-01-30T06:43:47;0.60;99.90
23729;DHT22;12045;60.214;24.724;2024-01-30T06:46:16;0.70;99.90
23729;DHT22;12045;60.214;24.724;2024-01-30T06:48:45;0.70;99.90
23729;DHT22;12045;60.214;24.724;2024-01-30T06:51:13;0.60;99.90
23729;DHT22;12045;60.214;24.724;2024-01-30T06:53:44;0.40;99.90
23729;DHT22;12045;60.214;24.724;2024-01-30T06:56:16;0.60;99.90
23729;DHT22;12045;60.214;24.724;2024-01-30T06:58:48;1.10;99.90
23729;DHT22;12045;60.214;24.724;2024-01-30T07:01:19;0.50;99.90
23729;DHT22;12045;60.214;24.724;2024-01-30T07:03:54;0.70;99.90
23729;DHT22;12045;60.214;24.724;2024-01-30T07:06:22;0.20;99.90
23729;DHT22;12045;60.214;24.724;2024-01-30T07:08:51;0.20;99.90
23729;DHT22;12045;60.214;24.724;2024-01-30T07:11:20;0.40;99.90
23729;DHT22;12045;60.214;24.724;2024-01-30T07:13:52;1.10;99.90
23729;DHT22;12045;60.214;24.724;2024-01-30T07:18:58;0.50;99.90
23729;DHT22;12045;60.214;24.724;2024-01-30T07:21:25;0.40;99.90
23729;DHT22;12045;60.214;24.724;2024-01-30T07:23:55;0.40;99.90
23729;DHT22;12045;60.214;24.724;2024-01-30T07:26:25;0.50;99.90
23729;DHT22;12045;60.214;24.724;2024-01-30T07:28:54;0.50;99.90
23729;DHT22;12045;60.214;24.724;2024-01-30T07:33:58;0.60;99.90
23729;DHT22;12045;60.214;24.724;2024-01-30T07:36:29;0.50;99.90
23729;DHT22;12045;60.214;24.724;2024-01-30T07:39:01;0.60;99.90
23729;DHT22;12045;60.214;24.724;2024-01-30T07:41:33;1.30;99.90
23729;DHT22;12045;60.214;24.724;2024-01-30T07:44:03;0.90;99.90
23729;DHT22;12045;60.214;24.724;2024-01-30T07:47:01;1.10;99.90
23729;DHT22;12045;60.214;24.724;2024-01-30T07:49:49;0.90;99.90
23729;DHT22;12045;60.214;24.724;2024-01-30T07:52:22;1.00;99.90
23729;DHT22;12045;60.214;24.724;2024-01-30T07:54:58;1.60;99.90
23729;DHT22;12045;60.214;24.724;2024-01-30T07:57:28;1.40;99.90
23729;DHT22;12045;60.214;24.724;2024-01-30T08:06:00;1.50;99.90
23729;DHT22;12045;60.214;24.724;2024-01-30T08:08:29;2.10;99.90
23729;DHT22;12045;60.214;24.724;2024-01-30T08:10:57;0.90;99.90
23729;DHT22;12045;60.214;24.724;2024-01-30T08:13:27;0.80;99.90
23729;DHT22;12045;60.214;24.724;2024-01-30T08:15:59;1.70;99.90
23729;DHT22;12045;60.214;24.724;2024-01-30T08:18:30;1.10;99.90
23729;DHT22;12045;60.214;24.724;2024-01-30T08:20:59;0.90;99.90
23729;DHT22;12045;60.214;24.724;2024-01-30T08:23:27;0.90;99.90
23729;DHT22;12045;60.214;24.724;2024-01-30T08:25:56;1.90;99.90
23729;DHT22;12045;60.214;24.724;2024-01-30T08:33:44;1.40;99.90
23729;DHT22;12045;60.214;24.724;2024-01-30T08:36:17;0.90;99.90
23729;DHT22;12045;60.214;24.724;2024-01-30T08:38:47;1.20;99.90
23729;DHT22;12045;60.214;24.724;2024-01-30T08:41:16;1.40;99.90
23729;DHT22;12045;60.214;24.724;2024-01-30T08:46:23;1.50;99.90
23729;DHT22;12045;60.214;24.724;2024-01-30T08:48:55;1.50;99.90
23729;DHT22;12045;60.214;24.724;2024-01-30T08:51:24;1.90;99.90
23729;DHT22;12045;60.214;24.724;2024-01-30T08:53:54;1.70;99.90
23729;DHT22;12045;60.214;24.724;2024-01-30T08:56:32;1.30;99.90
23729;DHT22;12045;60.214;24.724;2024-01-30T08:59:02;1.60;99.90
23729;DHT22;12045;60.214;24.724;2024-01-30T09:01:38;0.90;99.90
23729;DHT22;12045;60.214;24.724;2024-01-30T09:04:27;1.20;99.90
23729;DHT22;12045;60.214;24.724;2024-01-30T09:07:02;1.40;99.90
23729;DHT22;12045;60.214;24.724;2024-01-30T09:09:35;1.30;99.90
23729;DHT22;12045;60.214;24.724;2024-01-30T09:12:10;1.40;99.90
23729;DHT22;12045;60.214;24.724;2024-01-30T09:14:41;1.70;99.90
23729;DHT22;12045;60.214;24.724;2024-01-30T09:17:13;1.80;99.90
23729;DHT22;12045;60.214;24.724;2024-01-30T09:19:46;1.90;99.90
23729;DHT22;12045;60.214;24.724;2024-01-30T09:22:27;1.70;99.90
23729;DHT22;12045;60.214;24.724;2024-01-30T09:25:07;1.70;99.90
23729;DHT22;12045;60.214;24.724;2024-01-30T09:27:40;1.60;99.90
23729;DHT22;12045;60.214;24.724;2024-01-30T09:30:08;1.40;99.90
23729;DHT22;12045;60.214;24.724;2024-01-30T09:32:37;1.40;99.90
23729;DHT22;12045;60.214;24.724;2024-01-30T09:35:08;1.30;99.90
23729;DHT22;12045;60.214;24.724;2024-01-30T09:37:37;1.50;99.90
23729;DHT22;12045;60.214;24.724;2024-01-30T09:40:11;1.70;99.90
23729;DHT22;12045;60.214;24.724;2024-01-30T09:42:40;1.80;99.90
23729;DHT22;12045;60.214;24.724;2024-01-30T09:45:18;1.90;99.90
23729;DHT22;12045;60.214;24.724;2024-01-30T09:47:47;2.10;99.90
23729;DHT22;12045;60.214;24.724;2024-01-30T09:50:22;2.30;99.90
23729;DHT22;12045;60.214;24.724;2024-01-30T09:52:53;2.20;99.90
23729;DHT22;12045;60.214;24.724;2024-01-30T09:55:25;2.60;99.90
23729;DHT22;12045;60.214;24.724;2024-01-30T09:57:56;2.20;99.90
23729;DHT22;12045;60.214;24.724;2024-01-30T10:00:23;2.40;99.90
23729;DHT22;12045;60.214;24.724;2024-01-30T10:02:57;2.40;99.90
23729;DHT22;12045;60.214;24.724;2024-01-30T10:05:27;2.00;99.90
23729;DHT22;12045;60.214;24.724;2024-01-30T10:08:07;2.60;99.90
23729;DHT22;12045;60.214;24.724;2024-01-30T10:10:45;2.70;99.90
23729;DHT22;12045;60.214;24.724;2024-01-30T10:13:15;2.80;99.90
23729;DHT22;12045;60.214;24.724;2024-01-30T10:15:43;3.40;99.90
23729;DHT22;12045;60.214;24.724;2024-01-30T10:18:19;2.60;99.90
23729;DHT22;12045;60.214;24.724;2024-01-30T10:20:51;2.80;99.90
23729;DHT22;12045;60.214;24.724;2024-01-30T10:26:16;2.80;99.90
23729;DHT22;12045;60.214;24.724;2024-01-30T10:28:49;2.80;99.90
23729;DHT22;12045;60.214;24.724;2024-01-30T10:31:19;2.60;99.90
23729;DHT22;12045;60.214;24.724;2024-01-30T10:33:48;2.60;99.90
23729;DHT22;12045;60.214;24.724;2024-01-30T10:36:40;2.40;99.90
23729;DHT22;12045;60.214;24.724;2024-01-30T10:39:14;3.10;99.90
23729;DHT22;12045;60.214;24.724;2024-01-30T10:41:44;2.80;99.90
23729;DHT22;12045;60.214;24.724;2024-01-30T10:44:19;3.60;99.90
23729;DHT22;12045;60.214;24.724;2024-01-30T10:46:56;3.00;99.90
23729;DHT22;12045;60.214;24.724;2024-01-30T10:49:35;2.80;99.90
23729;DHT22;12045;60.214;24.724;2024-01-30T10:52:06;2.80;99.90
23729;DHT22;12045;60.214;24.724;2024-01-30T10:54:44;2.90;99.90
23729;DHT22;12045;60.214;24.724;2024-01-30T10:57:15;2.90;99.90
23729;DHT22;12045;60.214;24.724;2024-01-30T10:59:46;3.00;99.90
23729;DHT22;12045;60.214;24.724;2024-01-30T11:02:19;2.90;99.90
23729;DHT22;12045;60.214;24.724;2024-01-30T11:04:54;2.90;99.90
23729;DHT22;12045;60.214;24.724;2024-01-30T11:07:27;3.30;99.90
23729;DHT22;12045;60.214;24.724;2024-01-30T11:12:37;3.80;99.90
23729;DHT22;12045;60.214;24.724;2024-01-30T11:15:16;3.20;99.90
23729;DHT22;12045;60.214;24.724;2024-01-30T11:17:52;3.50;99.90
23729;DHT22;12045;60.214;24.724;2024-01-30T11:20:27;3.30;99.90
23729;DHT22;12045;60.214;24.724;2024-01-30T11:22:57;3.30;99.90
23729;DHT22;12045;60.214;24.724;2024-01-30T11:25:31;3.20;99.90
23729;DHT22;12045;60.214;24.724;2024-01-30T11:28:03;3.70;99.90
23729;DHT22;12045;60.214;24.724;2024-01-30T11:30:33;3.20;99.90
23729;DHT22;12045;60.214;24.724;2024-01-30T11:33:09;3.10;99.90
23729;DHT22;12045;60.214;24.724;2024-01-30T11:35:44;3.10;99.90
23729;DHT22;12045;60.214;24.724;2024-01-30T11:38:18;3.20;99.90
23729;DHT22;12045;60.214;24.724;2024-01-30T11:40:48;2.90;99.90
23729;DHT22;12045;60.214;24.724;2024-01-30T11:43:19;2.90;99.90
23729;DHT22;12045;60.214;24.724;2024-01-30T11:45:50;2.90;99.90
23729;DHT22;12045;60.214;24.724;2024-01-30T11:48:18;2.80;99.90
23729;DHT22;12045;60.214;24.724;2024-01-30T11:50:48;3.00;99.90
23729;DHT22;12045;60.214;24.724;2024-01-30T11:53:20;2.90;99.90
23729;DHT22;12045;60.214;24.724;2024-01-30T11:55:55;3.10;99.90
23729;DHT22;12045;60.214;24.724;2024-01-30T11:58:26;3.30;99.90
23729;DHT22;12045;60.214;24.724;2024-01-30T12:00:56;2.70;99.90
23729;DHT22;12045;60.214;24.724;2024-01-30T12:03:25;2.80;99.90
23729;DHT22;12045;60.214;24.724;2024-01-30T12:06:00;2.30;99.90
23729;DHT22;12045;60.214;24.724;2024-01-30T12:08:37;2.80;99.90
23729;DHT22;12045;60.214;24.724;2024-01-30T12:11:06;2.70;99.90
23729;DHT22;12045;60.214;24.724;2024-01-30T12:13:34;2.50;99.90
23729;DHT22;12045;60.214;24.724;2024-01-30T12:16:02;2.70;99.90
23729;DHT22;12045;60.214;24.724;2024-01-30T12:29:20;2.80;99.90
23729;DHT22;12045;60.214;24.724;2024-01-30T12:31:53;2.60;99.90
23729;DHT22;12045;60.214;24.724;2024-01-30T12:34:25;3.50;99.90
23729;DHT22;12045;60.214;24.724;2024-01-30T12:36:55;2.30;99.90
23729;DHT22;12045;60.214;24.724;2024-01-30T12:39:28;2.70;99.90
23729;DHT22;12045;60.214;24.724;2024-01-30T12:42:00;2.90;99.90
23729;DHT22;12045;60.214;24.724;2024-01-30T12:44:30;3.10;99.90
23729;DHT22;12045;60.214;24.724;2024-01-30T12:47:04;2.70;99.90
23729;DHT22;12045;60.214;24.724;2024-01-30T12:49:34;2.50;99.90
23729;DHT22;12045;60.214;24.724;2024-01-30T12:52:03;2.60;99.90
23729;DHT22;12045;60.214;24.724;2024-01-30T12:54:35;2.60;99.90
23729;DHT22;12045;60.214;24.724;2024-01-30T12:57:04;2.50;99.90
23729;DHT22;12045;60.214;24.724;2024-01-30T12:59:35;2.90;99.90
23729;DHT22;12045;60.214;24.724;2024-01-30T13:02:05;2.50;99.90
23729;DHT22;12045;60.214;24.724;2024-01-30T13:04:34;2.90;99.90
23729;DHT22;12045;60.214;24.724;2024-01-30T13:07:07;2.50;99.90
23729;DHT22;12045;60.214;24.724;2024-01-30T13:09:38;2.70;99.90
23729;DHT22;12045;60.214;24.724;2024-01-30T16:12:45;1.20;99.90
23729;DHT22;12045;60.214;24.724;2024-01-30T16:15:14;1.20;99.90
23729;DHT22;12045;60.214;24.724;2024-01-30T16:17:44;0.90;99.90
23729;DHT22;12045;60.214;24.724;2024-01-30T16:20:11;1.40;99.90
23729;DHT22;12045;60.214;24.724;2024-01-30T16:22:43;1.50;99.90
23729;DHT22;12045;60.214;24.724;2024-01-30T16:25:11;1.10;99.90
23729;DHT22;12045;60.214;24.724;2024-01-30T16:27:40;1.50;99.90
23729;DHT22;12045;60.214;24.724;2024-01-30T16:30:09;1.20;99.90
23729;DHT22;12045;60.214;24.724;2024-01-30T16:32:37;1.30;99.90
23729;DHT22;12045;60.214;24.724;2024-01-30T16:35:06;1.30;99.90
23729;DHT22;12045;60.214;24.724;2024-01-30T16:37:34;0.90;99.90
23729;DHT22;12045;60.214;24.724;2024-01-30T16:45:08;1.60;99.90
23729;DHT22;12045;60.214;24.724;2024-01-30T16:47:35;1.50;99.90
23729;DHT22;12045;60.214;24.724;2024-01-30T16:50:04;1.20;99.90
23729;DHT22;12045;60.214;24.724;2024-01-30T16:52:32;1.30;99.90
23729;DHT22;12045;60.214;24.724;2024-01-30T16:55:00;1.20;99.90
23729;DHT22;12045;60.214;24.724;2024-01-30T16:57:27;1.20;99.90
23729;DHT22;12045;60.214;24.724;2024-01-30T16:59:56;1.10;99.90
23729;DHT22;12045;60.214;24.724;2024-01-30T17:02:25;1.10;99.90
23729;DHT22;12045;60.214;24.724;2024-01-30T17:04:53;1.10;99.90
23729;DHT22;12045;60.214;24.724;2024-01-30T17:07:28;1.50;99.90
23729;DHT22;12045;60.214;24.724;2024-01-30T17:10:02;1.30;99.90
23729;DHT22;12045;60.214;24.724;2024-01-30T17:12:31;1.10;99.90
23729;DHT22;12045;60.214;24.724;2024-01-30T17:14:59;1.10;99.90
23729;DHT22;12045;60.214;24.724;2024-01-30T17:17:28;0.50;99.90
23729;DHT22;12045;60.214;24.724;2024-01-30T17:19:58;1.00;99.90
23729;DHT22;12045;60.214;24.724;2024-01-30T17:22:25;1.20;99.90
23729;DHT22;12045;60.214;24.724;2024-01-30T17:24:55;1.00;99.90
23729;DHT22;12045;60.214;24.724;2024-01-30T17:27:24;0.90;99.90
23729;DHT22;12045;60.214;24.724;2024-01-30T17:29:51;1.10;99.90
23729;DHT22;12045;60.214;24.724;2024-01-30T17:32:19;1.00;99.90
23729;DHT22;12045;60.214;24.724;2024-01-30T17:34:49;1.10;99.90
23729;DHT22;12045;60.214;24.724;2024-01-30T17:37:18;1.20;99.90
23729;DHT22;12045;60.214;24.724;2024-01-30T17:39:46;0.60;99.90
23729;DHT22;12045;60.214;24.724;2024-01-30T17:42:16;0.90;99.90
23729;DHT22;12045;60.214;24.724;2024-01-30T17:44:48;1.70;99.90
23729;DHT22;12045;60.214;24.724;2024-01-30T17:47:15;1.20;99.90
23729;DHT22;12045;60.214;24.724;2024-01-30T17:49:44;1.00;99.90
23729;DHT22;12045;60.214;24.724;2024-01-30T17:52:12;1.20;99.90
23729;DHT22;12045;60.214;24.724;2024-01-30T17:54:40;1.20;99.90
23729;DHT22;12045;60.214;24.724;2024-01-30T17:57:10;0.90;99.90
23729;DHT22;12045;60.214;24.724;2024-01-30T17:59:38;1.00;99.90
23729;DHT22;12045;60.214;24.724;2024-01-30T18:02:07;0.90;99.90
23729;DHT22;12045;60.214;24.724;2024-01-30T18:04:37;1.20;99.90
23729;DHT22;12045;60.214;24.724;2024-01-30T18:07:08;1.10;99.90
23729;DHT22;12045;60.214;24.724;2024-01-30T18:09:38;1.10;99.90
23729;DHT22;12045;60.214;24.724;2024-01-30T18:12:06;1.10;99.90
23729;DHT22;12045;60.214;24.724;2024-01-30T18:14:37;1.20;99.90
23729;DHT22;12045;60.214;24.724;2024-01-30T18:17:04;1.10;99.90
23729;DHT22;12045;60.214;24.724;2024-01-30T18:19:34;0.90;99.90
23729;DHT22;12045;60.214;24.724;2024-01-30T18:22:02;1.30;99.90
23729;DHT22;12045;60.214;24.724;2024-01-30T18:24:31;1.40;99.90
23729;DHT22;12045;60.214;24.724;2024-01-30T18:26:59;1.50;99.90
23729;DHT22;12045;60.214;24.724;2024-01-30T18:29:27;1.00;99.90
23729;DHT22;12045;60.214;24.724;2024-01-30T18:31:55;0.90;99.90
23729;DHT22;12045;60.214;24.724;2024-01-30T18:34:23;1.10;99.90
23729;DHT22;12045;60.214;24.724;2024-01-30T18:36:52;1.10;99.90
23729;DHT22;12045;60.214;24.724;2024-01-30T18:39:22;1.40;99.90
23729;DHT22;12045;60.214;24.724;2024-01-30T18:41:51;1.40;99.90
23729;DHT22;12045;60.214;24.724;2024-01-30T18:44:19;1.60;99.90
23729;DHT22;12045;60.214;24.724;2024-01-30T18:46:47;1.10;99.90
23729;DHT22;12045;60.214;24.724;2024-01-30T18:49:16;1.20;99.90
23729;DHT22;12045;60.214;24.724;2024-01-30T18:51:49;1.40;99.90
23729;DHT22;12045;60.214;24.724;2024-01-30T18:54:22;1.40;99.90
23729;DHT22;12045;60.214;24.724;2024-01-30T18:56:52;1.50;99.90
23729;DHT22;12045;60.214;24.724;2024-01-30T18:59:21;1.40;99.90
23729;DHT22;12045;60.214;24.724;2024-01-30T19:01:48;1.30;99.90
23729;DHT22;12045;60.214;24.724;2024-01-30T19:04:19;1.20;99.90
23729;DHT22;12045;60.214;24.724;2024-01-30T19:06:47;1.50;99.90
23729;DHT22;12045;60.214;24.724;2024-01-30T19:09:20;1.40;99.90
23729;DHT22;12045;60.214;24.724;2024-01-30T19:11:49;1.50;99.90
23729;DHT22;12045;60.214;24.724;2024-01-30T19:14:17;1.80;99.90
23729;DHT22;12045;60.214;24.724;2024-01-30T19:16:46;1.40;99.90
23729;DHT22;12045;60.214;24.724;2024-01-30T19:19:15;1.50;99.90
23729;DHT22;12045;60.214;24.724;2024-01-30T19:26:42;1.60;99.90
23729;DHT22;12045;60.214;24.724;2024-01-30T19:29:11;1.70;99.90
23729;DHT22;12045;60.214;24.724;2024-01-30T19:31:38;1.40;99.90
23729;DHT22;12045;60.214;24.724;2024-01-30T19:34:07;1.60;99.90
23729;DHT22;12045;60.214;24.724;2024-01-30T19:36:36;1.80;99.90